TAF Text Data
IDs:
Format:
Raw Decoded Include METAR

Data at: 0954 UTC 20 Sep 2019

KCHO 200525Z 2006/2106 00000KT P6SM SKC
  FM201400 21004KT P6SM SKC
  FM210300 VRB03KT P6SM SKC